sensor_id;sensor_type;location;lat;lon;timestamp;temperature;humidity
78463;SHT31;67756;51.982;5.648;2023-04-24T00:02:06;11.9;75.4
78463;SHT31;67756;51.982;5.648;2023-04-24T00:04:38;11.9;75.5
78463;SHT31;67756;51.982;5.648;2023-04-24T00:07:12;11.9;75.8
78463;SHT31;67756;51.982;5.648;2023-04-24T00:09:44;11.9;75.2
78463;SHT31;67756;51.982;5.648;2023-04-24T00:12:13;11.9;75.3
78463;SHT31;67756;51.982;5.648;2023-04-24T00:14:43;11.9;74.9
78463;SHT31;67756;51.982;5.648;2023-04-24T00:17:13;11.9;75.0
78463;SHT31;67756;51.982;5.648;2023-04-24T00:19:44;12.0;75.1
78463;SHT31;67756;51.982;5.648;2023-04-24T00:22:14;12.0;75.0
78463;SHT31;67756;51.982;5.648;2023-04-24T00:24:43;12.0;74.9
78463;SHT31;67756;51.982;5.648;2023-04-24T00:27:13;12.0;75.1
78463;SHT31;67756;51.982;5.648;2023-04-24T00:29:42;12.0;74.7
78463;SHT31;67756;51.982;5.648;2023-04-24T00:32:12;12.1;74.5
78463;SHT31;67756;51.982;5.648;2023-04-24T00:34:42;12.1;74.7
78463;SHT31;67756;51.982;5.648;2023-04-24T00:37:12;12.1;74.7
78463;SHT31;67756;51.982;5.648;2023-04-24T00:39:41;12.1;74.2
78463;SHT31;67756;51.982;5.648;2023-04-24T00:42:11;12.1;74.3
78463;SHT31;67756;51.982;5.648;2023-04-24T00:44:41;12.1;74.4
78463;SHT31;67756;51.982;5.648;2023-04-24T00:47:11;12.1;74.9
78463;SHT31;67756;51.982;5.648;2023-04-24T00:49:44;12.1;75.0
78463;SHT31;67756;51.982;5.648;2023-04-24T00:52:13;12.1;74.8
78463;SHT31;67756;51.982;5.648;2023-04-24T00:54:45;12.1;75.0
78463;SHT31;67756;51.982;5.648;2023-04-24T00:57:14;12.1;74.5
78463;SHT31;67756;51.982;5.648;2023-04-24T00:59:45;12.1;75.0
78463;SHT31;67756;51.982;5.648;2023-04-24T01:02:15;12.1;75.3
78463;SHT31;67756;51.982;5.648;2023-04-24T01:04:45;12.1;74.3
78463;SHT31;67756;51.982;5.648;2023-04-24T01:07:15;12.1;74.1
78463;SHT31;67756;51.982;5.648;2023-04-24T01:09:45;12.0;73.7
78463;SHT31;67756;51.982;5.648;2023-04-24T01:12:19;12.0;73.7
78463;SHT31;67756;51.982;5.648;2023-04-24T01:14:51;12.0;73.8
78463;SHT31;67756;51.982;5.648;2023-04-24T01:17:20;12.0;73.9
78463;SHT31;67756;51.982;5.648;2023-04-24T01:19:50;12.1;73.9
78463;SHT31;67756;51.982;5.648;2023-04-24T01:22:21;12.1;73.1
78463;SHT31;67756;51.982;5.648;2023-04-24T01:24:51;12.2;73.1
78463;SHT31;67756;51.982;5.648;2023-04-24T01:27:21;12.2;73.2
78463;SHT31;67756;51.982;5.648;2023-04-24T01:29:51;12.2;72.7
78463;SHT31;67756;51.982;5.648;2023-04-24T01:32:21;12.2;73.4
78463;SHT31;67756;51.982;5.648;2023-04-24T01:34:50;12.2;73.5
78463;SHT31;67756;51.982;5.648;2023-04-24T01:37:20;12.2;74.0
78463;SHT31;67756;51.982;5.648;2023-04-24T01:39:50;12.2;73.8
78463;SHT31;67756;51.982;5.648;2023-04-24T01:42:21;12.2;73.7
78463;SHT31;67756;51.982;5.648;2023-04-24T01:44:52;12.2;73.7
78463;SHT31;67756;51.982;5.648;2023-04-24T01:47:22;12.2;74.1
78463;SHT31;67756;51.982;5.648;2023-04-24T01:49:52;12.2;74.3
78463;SHT31;67756;51.982;5.648;2023-04-24T01:52:22;12.2;74.6
78463;SHT31;67756;51.982;5.648;2023-04-24T01:54:52;12.2;75.1
78463;SHT31;67756;51.982;5.648;2023-04-24T01:57:23;12.2;75.2
78463;SHT31;67756;51.982;5.648;2023-04-24T01:59:53;12.2;75.6
78463;SHT31;67756;51.982;5.648;2023-04-24T02:02:22;12.2;75.7
78463;SHT31;67756;51.982;5.648;2023-04-24T02:04:54;12.2;75.5
78463;SHT31;67756;51.982;5.648;2023-04-24T02:07:26;12.2;75.9
78463;SHT31;67756;51.982;5.648;2023-04-24T02:09:55;12.2;75.8
78463;SHT31;67756;51.982;5.648;2023-04-24T02:12:25;12.2;75.8
78463;SHT31;67756;51.982;5.648;2023-04-24T02:14:54;12.2;75.8
78463;SHT31;67756;51.982;5.648;2023-04-24T02:17:26;12.2;75.9
78463;SHT31;67756;51.982;5.648;2023-04-24T02:19:55;12.2;75.7
78463;SHT31;67756;51.982;5.648;2023-04-24T02:22:25;12.3;75.2
78463;SHT31;67756;51.982;5.648;2023-04-24T02:24:57;12.3;75.7
78463;SHT31;67756;51.982;5.648;2023-04-24T02:27:27;12.3;76.0
78463;SHT31;67756;51.982;5.648;2023-04-24T02:29:56;12.3;76.2
78463;SHT31;67756;51.982;5.648;2023-04-24T02:32:26;12.3;76.3
78463;SHT31;67756;51.982;5.648;2023-04-24T02:34:55;12.3;76.4
78463;SHT31;67756;51.982;5.648;2023-04-24T02:37:25;12.3;76.8
78463;SHT31;67756;51.982;5.648;2023-04-24T02:39:54;12.3;76.0
78463;SHT31;67756;51.982;5.648;2023-04-24T02:42:24;12.2;75.0
78463;SHT31;67756;51.982;5.648;2023-04-24T02:44:53;12.2;75.3
78463;SHT31;67756;51.982;5.648;2023-04-24T02:47:23;12.2;75.6
78463;SHT31;67756;51.982;5.648;2023-04-24T02:49:52;12.1;75.5
78463;SHT31;67756;51.982;5.648;2023-04-24T02:52:22;12.1;76.1
78463;SHT31;67756;51.982;5.648;2023-04-24T02:54:51;12.1;75.1
78463;SHT31;67756;51.982;5.648;2023-04-24T02:57:21;12.1;75.6
78463;SHT31;67756;51.982;5.648;2023-04-24T02:59:50;12.0;75.8
78463;SHT31;67756;51.982;5.648;2023-04-24T03:02:20;12.0;75.6
78463;SHT31;67756;51.982;5.648;2023-04-24T03:04:49;12.0;75.3
78463;SHT31;67756;51.982;5.648;2023-04-24T03:07:21;12.0;75.7
78463;SHT31;67756;51.982;5.648;2023-04-24T03:09:51;12.0;76.0
78463;SHT31;67756;51.982;5.648;2023-04-24T03:12:20;12.0;76.5
78463;SHT31;67756;51.982;5.648;2023-04-24T03:14:51;12.0;76.6
78463;SHT31;67756;51.982;5.648;2023-04-24T03:17:20;12.0;76.5
78463;SHT31;67756;51.982;5.648;2023-04-24T03:19:50;12.0;76.4
78463;SHT31;67756;51.982;5.648;2023-04-24T03:22:19;12.0;76.4
78463;SHT31;67756;51.982;5.648;2023-04-24T03:24:49;12.0;76.7
78463;SHT31;67756;51.982;5.648;2023-04-24T03:27:19;12.1;76.6
78463;SHT31;67756;51.982;5.648;2023-04-24T03:29:48;12.1;76.6
78463;SHT31;67756;51.982;5.648;2023-04-24T03:32:22;12.1;76.5
78463;SHT31;67756;51.982;5.648;2023-04-24T03:34:53;12.1;76.3
78463;SHT31;67756;51.982;5.648;2023-04-24T03:37:23;12.1;75.9
78463;SHT31;67756;51.982;5.648;2023-04-24T03:39:56;12.1;75.3
78463;SHT31;67756;51.982;5.648;2023-04-24T03:42:26;12.2;75.7
78463;SHT31;67756;51.982;5.648;2023-04-24T03:44:55;12.2;75.2
78463;SHT31;67756;51.982;5.648;2023-04-24T03:47:24;12.2;74.8
78463;SHT31;67756;51.982;5.648;2023-04-24T03:49:54;12.2;74.9
78463;SHT31;67756;51.982;5.648;2023-04-24T03:52:23;12.2;74.9
78463;SHT31;67756;51.982;5.648;2023-04-24T03:54:53;12.2;74.5
78463;SHT31;67756;51.982;5.648;2023-04-24T03:57:22;12.1;75.0
78463;SHT31;67756;51.982;5.648;2023-04-24T03:59:52;12.1;74.3
78463;SHT31;67756;51.982;5.648;2023-04-24T04:02:22;12.1;74.6
78463;SHT31;67756;51.982;5.648;2023-04-24T04:04:54;12.0;74.4
78463;SHT31;67756;51.982;5.648;2023-04-24T04:07:23;11.9;74.7
78463;SHT31;67756;51.982;5.648;2023-04-24T04:09:53;11.8;74.6
78463;SHT31;67756;51.982;5.648;2023-04-24T04:12:22;11.7;74.8
78463;SHT31;67756;51.982;5.648;2023-04-24T04:14:52;11.6;75.2
78463;SHT31;67756;51.982;5.648;2023-04-24T04:17:21;11.5;75.8
78463;SHT31;67756;51.982;5.648;2023-04-24T04:19:51;11.5;76.2
78463;SHT31;67756;51.982;5.648;2023-04-24T04:22:20;11.4;76.2
78463;SHT31;67756;51.982;5.648;2023-04-24T04:24:50;11.3;76.7
78463;SHT31;67756;51.982;5.648;2023-04-24T04:27:19;11.3;76.8
78463;SHT31;67756;51.982;5.648;2023-04-24T04:29:49;11.2;77.0
78463;SHT31;67756;51.982;5.648;2023-04-24T04:32:19;11.2;77.6
78463;SHT31;67756;51.982;5.648;2023-04-24T04:34:51;11.1;78.7
78463;SHT31;67756;51.982;5.648;2023-04-24T04:37:21;11.1;78.7
78463;SHT31;67756;51.982;5.648;2023-04-24T04:39:50;11.1;78.6
78463;SHT31;67756;51.982;5.648;2023-04-24T04:42:21;11.1;78.8
78463;SHT31;67756;51.982;5.648;2023-04-24T04:44:51;11.0;79.1
78463;SHT31;67756;51.982;5.648;2023-04-24T04:47:21;11.0;78.5
78463;SHT31;67756;51.982;5.648;2023-04-24T04:49:51;11.0;79.0
78463;SHT31;67756;51.982;5.648;2023-04-24T04:52:20;11.0;79.2
78463;SHT31;67756;51.982;5.648;2023-04-24T04:54:52;11.0;80.2
78463;SHT31;67756;51.982;5.648;2023-04-24T04:57:22;11.0;80.2
78463;SHT31;67756;51.982;5.648;2023-04-24T04:59:52;11.0;80.7
78463;SHT31;67756;51.982;5.648;2023-04-24T05:02:22;11.0;80.5
78463;SHT31;67756;51.982;5.648;2023-04-24T05:04:51;11.1;80.8
78463;SHT31;67756;51.982;5.648;2023-04-24T05:07:21;11.1;80.2
78463;SHT31;67756;51.982;5.648;2023-04-24T05:09:50;11.2;79.9
78463;SHT31;67756;51.982;5.648;2023-04-24T05:12:20;11.2;80.4
78463;SHT31;67756;51.982;5.648;2023-04-24T05:14:50;11.3;78.6
78463;SHT31;67756;51.982;5.648;2023-04-24T05:17:19;11.3;79.5
78463;SHT31;67756;51.982;5.648;2023-04-24T05:19:51;11.3;78.8
78463;SHT31;67756;51.982;5.648;2023-04-24T05:22:20;11.4;79.8
78463;SHT31;67756;51.982;5.648;2023-04-24T05:24:53;11.4;79.2
78463;SHT31;67756;51.982;5.648;2023-04-24T05:27:23;11.4;79.3
78463;SHT31;67756;51.982;5.648;2023-04-24T05:29:55;11.4;79.4
78463;SHT31;67756;51.982;5.648;2023-04-24T05:32:24;11.5;79.0
78463;SHT31;67756;51.982;5.648;2023-04-24T05:34:54;11.5;79.1
78463;SHT31;67756;51.982;5.648;2023-04-24T05:37:24;11.5;79.2
78463;SHT31;67756;51.982;5.648;2023-04-24T05:39:53;11.6;80.0
78463;SHT31;67756;51.982;5.648;2023-04-24T05:42:23;11.6;79.2
78463;SHT31;67756;51.982;5.648;2023-04-24T05:44:52;11.6;78.3
78463;SHT31;67756;51.982;5.648;2023-04-24T05:47:22;11.7;77.8
78463;SHT31;67756;51.982;5.648;2023-04-24T05:49:53;11.7;77.7
78463;SHT31;67756;51.982;5.648;2023-04-24T05:52:23;11.7;79.1
78463;SHT31;67756;51.982;5.648;2023-04-24T05:54:53;11.7;79.5
78463;SHT31;67756;51.982;5.648;2023-04-24T05:57:23;11.8;79.8
78463;SHT31;67756;51.982;5.648;2023-04-24T05:59:56;12.0;78.7
78463;SHT31;67756;51.982;5.648;2023-04-24T06:02:26;12.1;78.1
78463;SHT31;67756;51.982;5.648;2023-04-24T06:04:59;12.2;78.3
78463;SHT31;67756;51.982;5.648;2023-04-24T06:07:31;12.2;77.9
78463;SHT31;67756;51.982;5.648;2023-04-24T06:10:00;12.2;77.4
78463;SHT31;67756;51.982;5.648;2023-04-24T06:12:30;12.2;77.2
78463;SHT31;67756;51.982;5.648;2023-04-24T06:14:59;12.2;76.6
78463;SHT31;67756;51.982;5.648;2023-04-24T06:17:30;12.2;77.2
78463;SHT31;67756;51.982;5.648;2023-04-24T06:20:00;12.2;76.4
78463;SHT31;67756;51.982;5.648;2023-04-24T06:22:32;12.2;76.8
78463;SHT31;67756;51.982;5.648;2023-04-24T06:25:03;12.2;76.1
78463;SHT31;67756;51.982;5.648;2023-04-24T06:27:32;12.2;76.7
78463;SHT31;67756;51.982;5.648;2023-04-24T06:30:02;12.1;76.6
78463;SHT31;67756;51.982;5.648;2023-04-24T06:32:32;12.1;76.5
78463;SHT31;67756;51.982;5.648;2023-04-24T06:35:02;12.1;76.7
78463;SHT31;67756;51.982;5.648;2023-04-24T06:37:32;12.0;76.8
78463;SHT31;67756;51.982;5.648;2023-04-24T06:40:01;12.0;77.0
78463;SHT31;67756;51.982;5.648;2023-04-24T06:42:33;11.9;77.2
78463;SHT31;67756;51.982;5.648;2023-04-24T06:45:03;11.9;77.7
78463;SHT31;67756;51.982;5.648;2023-04-24T06:47:33;11.8;78.0
78463;SHT31;67756;51.982;5.648;2023-04-24T06:50:03;11.8;78.1
78463;SHT31;67756;51.982;5.648;2023-04-24T06:52:33;11.8;78.4
78463;SHT31;67756;51.982;5.648;2023-04-24T06:55:03;11.8;78.0
78463;SHT31;67756;51.982;5.648;2023-04-24T06:57:33;11.7;77.4
78463;SHT31;67756;51.982;5.648;2023-04-24T07:00:03;11.7;77.1
78463;SHT31;67756;51.982;5.648;2023-04-24T07:02:34;11.7;77.1
78463;SHT31;67756;51.982;5.648;2023-04-24T07:05:05;11.6;77.1
78463;SHT31;67756;51.982;5.648;2023-04-24T07:07:35;11.6;77.7
78463;SHT31;67756;51.982;5.648;2023-04-24T07:10:08;11.6;77.6
78463;SHT31;67756;51.982;5.648;2023-04-24T07:12:37;11.5;77.9
78463;SHT31;67756;51.982;5.648;2023-04-24T07:15:08;11.5;78.0
78463;SHT31;67756;51.982;5.648;2023-04-24T07:17:40;11.5;77.2
78463;SHT31;67756;51.982;5.648;2023-04-24T07:20:11;11.4;77.0
78463;SHT31;67756;51.982;5.648;2023-04-24T07:22:42;11.4;77.5
78463;SHT31;67756;51.982;5.648;2023-04-24T07:25:11;11.3;78.0
78463;SHT31;67756;51.982;5.648;2023-04-24T07:27:41;11.3;78.0
78463;SHT31;67756;51.982;5.648;2023-04-24T07:30:11;11.2;78.3
78463;SHT31;67756;51.982;5.648;2023-04-24T07:32:40;11.2;78.4
78463;SHT31;67756;51.982;5.648;2023-04-24T07:35:10;11.2;78.5
78463;SHT31;67756;51.982;5.648;2023-04-24T07:37:42;11.1;79.0
78463;SHT31;67756;51.982;5.648;2023-04-24T07:40:14;11.1;77.9
78463;SHT31;67756;51.982;5.648;2023-04-24T07:42:43;11.1;76.7
78463;SHT31;67756;51.982;5.648;2023-04-24T07:45:15;11.1;77.2
78463;SHT31;67756;51.982;5.648;2023-04-24T07:47:45;11.0;78.4
78463;SHT31;67756;51.982;5.648;2023-04-24T07:50:15;11.0;77.9
78463;SHT31;67756;51.982;5.648;2023-04-24T07:52:44;10.9;78.2
78463;SHT31;67756;51.982;5.648;2023-04-24T07:55:14;10.9;77.6
78463;SHT31;67756;51.982;5.648;2023-04-24T07:57:43;10.9;77.5
78463;SHT31;67756;51.982;5.648;2023-04-24T08:00:14;10.8;77.7
78463;SHT31;67756;51.982;5.648;2023-04-24T08:02:45;10.8;78.9
78463;SHT31;67756;51.982;5.648;2023-04-24T08:05:15;10.8;78.8
78463;SHT31;67756;51.982;5.648;2023-04-24T08:07:47;10.8;78.9
78463;SHT31;67756;51.982;5.648;2023-04-24T08:10:20;10.8;78.4
78463;SHT31;67756;51.982;5.648;2023-04-24T08:12:49;10.7;78.9
78463;SHT31;67756;51.982;5.648;2023-04-24T08:15:19;10.7;79.8
78463;SHT31;67756;51.982;5.648;2023-04-24T08:17:49;10.8;79.3
78463;SHT31;67756;51.982;5.648;2023-04-24T08:20:20;10.8;79.6
78463;SHT31;67756;51.982;5.648;2023-04-24T08:22:49;10.9;78.6
78463;SHT31;67756;51.982;5.648;2023-04-24T08:25:19;11.0;77.8
78463;SHT31;67756;51.982;5.648;2023-04-24T08:27:51;11.0;77.4
78463;SHT31;67756;51.982;5.648;2023-04-24T08:30:22;11.0;77.1
78463;SHT31;67756;51.982;5.648;2023-04-24T08:32:52;11.0;77.6
78463;SHT31;67756;51.982;5.648;2023-04-24T08:35:21;11.0;77.4
78463;SHT31;67756;51.982;5.648;2023-04-24T08:37:51;11.0;77.7
78463;SHT31;67756;51.982;5.648;2023-04-24T08:40:27;11.0;77.7
78463;SHT31;67756;51.982;5.648;2023-04-24T08:42:59;10.9;78.1
78463;SHT31;67756;51.982;5.648;2023-04-24T08:45:29;10.9;78.5
78463;SHT31;67756;51.982;5.648;2023-04-24T08:47:59;10.9;78.0
78463;SHT31;67756;51.982;5.648;2023-04-24T08:50:29;10.9;78.3
78463;SHT31;67756;51.982;5.648;2023-04-24T08:53:01;10.9;78.3
78463;SHT31;67756;51.982;5.648;2023-04-24T08:55:31;10.8;78.5
78463;SHT31;67756;51.982;5.648;2023-04-24T08:58:04;10.8;78.6
78463;SHT31;67756;51.982;5.648;2023-04-24T09:00:33;10.8;79.4
78463;SHT31;67756;51.982;5.648;2023-04-24T09:03:05;10.8;79.2
78463;SHT31;67756;51.982;5.648;2023-04-24T09:05:35;10.8;78.0
78463;SHT31;67756;51.982;5.648;2023-04-24T09:08:05;10.8;77.5
78463;SHT31;67756;51.982;5.648;2023-04-24T09:10:36;10.8;76.5
78463;SHT31;67756;51.982;5.648;2023-04-24T09:13:05;10.8;75.9
78463;SHT31;67756;51.982;5.648;2023-04-24T09:15:37;10.8;77.5
78463;SHT31;67756;51.982;5.648;2023-04-24T09:18:09;10.7;75.9
78463;SHT31;67756;51.982;5.648;2023-04-24T09:20:59;10.7;74.8
78463;SHT31;67756;51.982;5.648;2023-04-24T09:23:30;10.7;76.2
78463;SHT31;67756;51.982;5.648;2023-04-24T09:26:02;10.7;75.4
78463;SHT31;67756;51.982;5.648;2023-04-24T09:28:35;10.7;76.0
78463;SHT31;67756;51.982;5.648;2023-04-24T09:31:09;10.7;75.8
78463;SHT31;67756;51.982;5.648;2023-04-24T09:33:40;10.6;74.4
78463;SHT31;67756;51.982;5.648;2023-04-24T09:36:10;10.6;74.3
78463;SHT31;67756;51.982;5.648;2023-04-24T09:38:39;10.6;74.1
78463;SHT31;67756;51.982;5.648;2023-04-24T09:41:13;10.6;74.2
78463;SHT31;67756;51.982;5.648;2023-04-24T09:43:44;10.6;73.7
78463;SHT31;67756;51.982;5.648;2023-04-24T09:46:13;10.6;74.0
78463;SHT31;67756;51.982;5.648;2023-04-24T09:48:43;10.6;74.0
78463;SHT31;67756;51.982;5.648;2023-04-24T09:51:14;10.6;73.4
78463;SHT31;67756;51.982;5.648;2023-04-24T09:53:47;10.5;75.4
78463;SHT31;67756;51.982;5.648;2023-04-24T09:56:17;10.6;74.7
78463;SHT31;67756;51.982;5.648;2023-04-24T09:58:47;10.6;74.5
78463;SHT31;67756;51.982;5.648;2023-04-24T10:01:31;10.7;74.7
78463;SHT31;67756;51.982;5.648;2023-04-24T10:04:01;10.7;74.6
78463;SHT31;67756;51.982;5.648;2023-04-24T10:06:33;10.8;73.7
78463;SHT31;67756;51.982;5.648;2023-04-24T10:09:03;10.9;74.3
78463;SHT31;67756;51.982;5.648;2023-04-24T10:11:34;11.0;72.8
78463;SHT31;67756;51.982;5.648;2023-04-24T10:14:06;11.1;72.5
78463;SHT31;67756;51.982;5.648;2023-04-24T10:16:36;11.2;72.8
78463;SHT31;67756;51.982;5.648;2023-04-24T10:19:07;11.3;71.2
78463;SHT31;67756;51.982;5.648;2023-04-24T10:21:36;11.4;69.4
78463;SHT31;67756;51.982;5.648;2023-04-24T10:24:10;11.4;67.8
78463;SHT31;67756;51.982;5.648;2023-04-24T10:26:42;11.5;66.3
78463;SHT31;67756;51.982;5.648;2023-04-24T10:29:13;11.5;66.4
78463;SHT31;67756;51.982;5.648;2023-04-24T10:31:44;11.5;64.3
78463;SHT31;67756;51.982;5.648;2023-04-24T10:34:16;11.5;65.5
78463;SHT31;67756;51.982;5.648;2023-04-24T10:36:51;11.6;66.0
78463;SHT31;67756;51.982;5.648;2023-04-24T10:39:21;11.6;66.2
78463;SHT31;67756;51.982;5.648;2023-04-24T10:41:53;11.7;64.4
78463;SHT31;67756;51.982;5.648;2023-04-24T10:44:25;11.8;65.1
78463;SHT31;67756;51.982;5.648;2023-04-24T10:46:56;11.8;64.8
78463;SHT31;67756;51.982;5.648;2023-04-24T10:49:32;11.9;63.8
78463;SHT31;67756;51.982;5.648;2023-04-24T10:52:03;12.0;64.2
78463;SHT31;67756;51.982;5.648;2023-04-24T10:54:40;12.1;64.1
78463;SHT31;67756;51.982;5.648;2023-04-24T10:57:29;12.1;62.9
78463;SHT31;67756;51.982;5.648;2023-04-24T11:00:14;12.1;62.6
78463;SHT31;67756;51.982;5.648;2023-04-24T11:02:46;12.1;62.9
78463;SHT31;67756;51.982;5.648;2023-04-24T11:05:20;12.1;63.0
78463;SHT31;67756;51.982;5.648;2023-04-24T11:08:37;12.1;62.0
78463;SHT31;67756;51.982;5.648;2023-04-24T11:11:11;12.1;62.6
78463;SHT31;67756;51.982;5.648;2023-04-24T11:14:03;12.1;61.4
78463;SHT31;67756;51.982;5.648;2023-04-24T11:16:44;12.2;62.7
78463;SHT31;67756;51.982;5.648;2023-04-24T11:19:22;12.2;62.6
78463;SHT31;67756;51.982;5.648;2023-04-24T11:21:59;12.2;63.1
78463;SHT31;67756;51.982;5.648;2023-04-24T11:24:48;12.2;63.5
78463;SHT31;67756;51.982;5.648;2023-04-24T11:27:16;12.3;63.3
78463;SHT31;67756;51.982;5.648;2023-04-24T11:29:48;12.4;64.0
78463;SHT31;67756;51.982;5.648;2023-04-24T11:32:23;12.5;65.2
78463;SHT31;67756;51.982;5.648;2023-04-24T11:34:54;12.8;63.1
78463;SHT31;67756;51.982;5.648;2023-04-24T11:37:27;13.0;60.4
78463;SHT31;67756;51.982;5.648;2023-04-24T11:39:58;13.2;60.5
78463;SHT31;67756;51.982;5.648;2023-04-24T11:42:28;13.2;59.6
78463;SHT31;67756;51.982;5.648;2023-04-24T11:45:10;13.3;59.0
78463;SHT31;67756;51.982;5.648;2023-04-24T11:47:41;13.3;57.7
78463;SHT31;67756;51.982;5.648;2023-04-24T11:50:12;13.3;57.2
78463;SHT31;67756;51.982;5.648;2023-04-24T11:52:44;13.2;57.8
78463;SHT31;67756;51.982;5.648;2023-04-24T11:55:25;13.1;59.2
78463;SHT31;67756;51.982;5.648;2023-04-24T11:57:57;12.9;60.4
78463;SHT31;67756;51.982;5.648;2023-04-24T12:00:30;12.8;60.8
78463;SHT31;67756;51.982;5.648;2023-04-24T12:03:08;12.7;62.3
78463;SHT31;67756;51.982;5.648;2023-04-24T12:05:40;12.5;62.8
78463;SHT31;67756;51.982;5.648;2023-04-24T12:08:11;12.4;63.1
78463;SHT31;67756;51.982;5.648;2023-04-24T12:10:41;12.3;63.7
78463;SHT31;67756;51.982;5.648;2023-04-24T12:13:10;12.3;64.0
78463;SHT31;67756;51.982;5.648;2023-04-24T12:15:41;12.2;64.4
78463;SHT31;67756;51.982;5.648;2023-04-24T12:18:13;12.3;63.9
78463;SHT31;67756;51.982;5.648;2023-04-24T12:20:44;12.3;64.2
78463;SHT31;67756;51.982;5.648;2023-04-24T12:23:14;12.4;62.4
78463;SHT31;67756;51.982;5.648;2023-04-24T12:25:45;12.5;60.5
78463;SHT31;67756;51.982;5.648;2023-04-24T12:28:14;12.6;61.4
78463;SHT31;67756;51.982;5.648;2023-04-24T12:30:47;12.7;60.6
78463;SHT31;67756;51.982;5.648;2023-04-24T12:33:20;12.7;60.6
78463;SHT31;67756;51.982;5.648;2023-04-24T12:35:52;12.8;60.2
78463;SHT31;67756;51.982;5.648;2023-04-24T12:38:25;12.8;60.3
78463;SHT31;67756;51.982;5.648;2023-04-24T12:41:04;12.8;58.9
78463;SHT31;67756;51.982;5.648;2023-04-24T12:43:36;12.9;59.2
78463;SHT31;67756;51.982;5.648;2023-04-24T12:46:06;12.9;59.0
78463;SHT31;67756;51.982;5.648;2023-04-24T12:48:37;12.9;59.2
78463;SHT31;67756;51.982;5.648;2023-04-24T12:51:06;13.0;59.6
78463;SHT31;67756;51.982;5.648;2023-04-24T12:53:36;13.0;59.5
78463;SHT31;67756;51.982;5.648;2023-04-24T12:56:06;13.0;59.8
78463;SHT31;67756;51.982;5.648;2023-04-24T12:58:35;13.0;58.9
78463;SHT31;67756;51.982;5.648;2023-04-24T13:01:07;13.1;58.7
78463;SHT31;67756;51.982;5.648;2023-04-24T13:03:37;13.1;58.2
78463;SHT31;67756;51.982;5.648;2023-04-24T13:06:06;13.1;58.9
78463;SHT31;67756;51.982;5.648;2023-04-24T13:08:36;13.2;57.3
78463;SHT31;67756;51.982;5.648;2023-04-24T13:11:06;13.3;56.3
78463;SHT31;67756;51.982;5.648;2023-04-24T13:13:35;13.3;55.6
78463;SHT31;67756;51.982;5.648;2023-04-24T13:16:06;13.3;56.9
78463;SHT31;67756;51.982;5.648;2023-04-24T13:18:35;13.4;55.7
78463;SHT31;67756;51.982;5.648;2023-04-24T13:21:05;13.4;55.3
78463;SHT31;67756;51.982;5.648;2023-04-24T13:23:34;13.5;55.8
78463;SHT31;67756;51.982;5.648;2023-04-24T13:26:04;13.5;56.2
78463;SHT31;67756;51.982;5.648;2023-04-24T13:28:35;13.5;56.1
78463;SHT31;67756;51.982;5.648;2023-04-24T13:31:05;13.6;56.8
78463;SHT31;67756;51.982;5.648;2023-04-24T13:33:35;13.6;55.0
78463;SHT31;67756;51.982;5.648;2023-04-24T13:36:05;13.8;56.3
78463;SHT31;67756;51.982;5.648;2023-04-24T13:38:34;13.9;55.0
78463;SHT31;67756;51.982;5.648;2023-04-24T13:41:04;14.1;54.8
78463;SHT31;67756;51.982;5.648;2023-04-24T13:43:33;14.3;52.2
78463;SHT31;67756;51.982;5.648;2023-04-24T13:46:03;14.5;52.9
78463;SHT31;67756;51.982;5.648;2023-04-24T13:48:33;15.0;50.2
78463;SHT31;67756;51.982;5.648;2023-04-24T13:51:02;15.7;48.9
78463;SHT31;67756;51.982;5.648;2023-04-24T13:53:32;16.2;49.3
78463;SHT31;67756;51.982;5.648;2023-04-24T13:56:06;16.6;45.5
78463;SHT31;67756;51.982;5.648;2023-04-24T13:58:36;16.8;44.9
78463;SHT31;67756;51.982;5.648;2023-04-24T14:01:06;16.9;43.5
78463;SHT31;67756;51.982;5.648;2023-04-24T14:03:37;16.9;44.2
78463;SHT31;67756;51.982;5.648;2023-04-24T14:06:06;16.8;45.0
78463;SHT31;67756;51.982;5.648;2023-04-24T14:08:36;16.7;44.4
78463;SHT31;67756;51.982;5.648;2023-04-24T14:11:06;16.7;45.2
78463;SHT31;67756;51.982;5.648;2023-04-24T14:13:36;16.8;44.9
78463;SHT31;67756;51.982;5.648;2023-04-24T14:16:06;17.0;42.2
78463;SHT31;67756;51.982;5.648;2023-04-24T14:18:36;17.2;41.7
78463;SHT31;67756;51.982;5.648;2023-04-24T14:21:06;17.2;40.4
78463;SHT31;67756;51.982;5.648;2023-04-24T14:23:35;17.2;41.8
78463;SHT31;67756;51.982;5.648;2023-04-24T14:26:05;17.1;40.8
78463;SHT31;67756;51.982;5.648;2023-04-24T14:28:34;16.9;41.5
78463;SHT31;67756;51.982;5.648;2023-04-24T14:31:06;16.8;41.1
78463;SHT31;67756;51.982;5.648;2023-04-24T14:33:36;16.7;42.5
78463;SHT31;67756;51.982;5.648;2023-04-24T14:36:06;16.7;42.3
78463;SHT31;67756;51.982;5.648;2023-04-24T14:38:35;16.6;41.4
78463;SHT31;67756;51.982;5.648;2023-04-24T14:41:05;16.6;42.3
78463;SHT31;67756;51.982;5.648;2023-04-24T14:43:37;16.6;43.6
78463;SHT31;67756;51.982;5.648;2023-04-24T14:46:07;16.6;42.7
78463;SHT31;67756;51.982;5.648;2023-04-24T14:48:37;16.6;42.4
78463;SHT31;67756;51.982;5.648;2023-04-24T14:51:07;16.5;42.7
78463;SHT31;67756;51.982;5.648;2023-04-24T14:53:36;16.5;42.3
78463;SHT31;67756;51.982;5.648;2023-04-24T14:56:06;16.4;43.4
78463;SHT31;67756;51.982;5.648;2023-04-24T14:58:36;16.4;45.3
78463;SHT31;67756;51.982;5.648;2023-04-24T15:01:06;16.4;44.5
78463;SHT31;67756;51.982;5.648;2023-04-24T15:03:36;16.5;43.6
78463;SHT31;67756;51.982;5.648;2023-04-24T15:06:05;16.5;42.7
78463;SHT31;67756;51.982;5.648;2023-04-24T15:08:35;16.5;42.0
78463;SHT31;67756;51.982;5.648;2023-04-24T15:11:05;16.3;43.5
78463;SHT31;67756;51.982;5.648;2023-04-24T15:13:36;16.2;43.6
78463;SHT31;67756;51.982;5.648;2023-04-24T15:16:07;16.0;42.5
78463;SHT31;67756;51.982;5.648;2023-04-24T15:18:36;15.8;43.0
78463;SHT31;67756;51.982;5.648;2023-04-24T15:21:06;15.7;42.8
78463;SHT31;67756;51.982;5.648;2023-04-24T15:23:35;15.5;43.2
78463;SHT31;67756;51.982;5.648;2023-04-24T15:26:05;15.4;45.2
78463;SHT31;67756;51.982;5.648;2023-04-24T15:28:34;15.3;47.1
78463;SHT31;67756;51.982;5.648;2023-04-24T15:31:04;15.3;47.5
78463;SHT31;67756;51.982;5.648;2023-04-24T15:33:33;15.2;46.5
78463;SHT31;67756;51.982;5.648;2023-04-24T15:36:03;15.2;48.0
78463;SHT31;67756;51.982;5.648;2023-04-24T15:38:33;15.2;47.6
78463;SHT31;67756;51.982;5.648;2023-04-24T15:41:02;15.2;47.1
78463;SHT31;67756;51.982;5.648;2023-04-24T15:43:32;15.2;45.3
78463;SHT31;67756;51.982;5.648;2023-04-24T15:46:02;15.3;46.0
78463;SHT31;67756;51.982;5.648;2023-04-24T15:48:35;15.4;46.4
78463;SHT31;67756;51.982;5.648;2023-04-24T15:51:06;15.6;45.9
78463;SHT31;67756;51.982;5.648;2023-04-24T15:53:35;15.6;45.7
78463;SHT31;67756;51.982;5.648;2023-04-24T15:56:05;15.6;46.4
78463;SHT31;67756;51.982;5.648;2023-04-24T15:58:35;15.6;46.7
78463;SHT31;67756;51.982;5.648;2023-04-24T16:01:05;15.6;47.1
78463;SHT31;67756;51.982;5.648;2023-04-24T16:03:35;15.6;48.2
78463;SHT31;67756;51.982;5.648;2023-04-24T16:06:05;15.6;48.0
78463;SHT31;67756;51.982;5.648;2023-04-24T16:08:34;15.6;47.6
78463;SHT31;67756;51.982;5.648;2023-04-24T16:11:04;15.5;46.5
78463;SHT31;67756;51.982;5.648;2023-04-24T16:13:33;15.4;45.6
78463;SHT31;67756;51.982;5.648;2023-04-24T16:16:03;15.3;45.8
78463;SHT31;67756;51.982;5.648;2023-04-24T16:18:33;15.2;43.2
78463;SHT31;67756;51.982;5.648;2023-04-24T16:21:02;15.1;44.3
78463;SHT31;67756;51.982;5.648;2023-04-24T16:23:32;15.0;44.4
78463;SHT31;67756;51.982;5.648;2023-04-24T16:26:01;14.9;45.3